KCDH/CDH METAR and TAF weather

Enter ICAO airport designator
Station Type Date Time Source
KCDH METAR 2019/02/23 02:55 UTC NOAA

KCDH 230255Z AUTO 00000KT 9SM OVC007 14/13 A2997 RMK AO2 P0001


Station Type Date Time Source
KCDH Decoded METAR 2019/02/23 02:55 UTC NOAA

Camden / Harrell Field, AR, United States (KCDH) 33-37N 092-46W
Feb 22, 2019 - 09:55 PM EST / 2019.02.23 0255 UTC
Wind: Calm:0
Visibility: 9 mile(s):0
Sky conditions: overcast
Precipitation last hour: 0.01 inches
Temperature: 57 F (14 C)
Dew Point: 55 F (13 C)
Relative Humidity: 93%
Pressure (altimeter): 29.97 in. Hg (1014 hPa)
ob: KCDH 230255Z AUTO 00000KT 9SM OVC007 14/13 A2997 RMK AO2 P0001
cycle: 3

Station Type Date Time Source
KCDH TAF UTC NOAA

Error!


Example: see airport list